Time;durP1;ratioP1;P1;durP2;ratioP2;P2;SDS_P1;SDS_P2;PMS_P1;PMS_P2;Temp;Humidity;BMP_temperature;BMP_pressure;BME280_temperature;BME280_humidity;BME280_pressure;Samples;Min_cycle;Max_cycle;Signal;HPM_P1;HPM_P2
2022/04/25 00:00:02;;;;;;;6.40;3.90;;;;;;;;;;5017188;28;20256;-56
2022/04/25 00:02:29;;;;;;;4.78;3.40;;;;;;;;;;5014731;28;20092;-58
2022/04/25 00:04:56;;;;;;;4.20;3.40;;;;;;;;;;5018620;28;20041;-56
2022/04/25 00:07:22;;;;;;;4.70;3.50;;;;;;;;;;5014451;28;20136;-56
2022/04/25 00:09:49;;;;;;;5.68;3.67;;;;;;;;;;5019737;28;20136;-54
2022/04/25 00:12:16;;;;;;;4.30;3.22;;;;;;;;;;5018125;28;20136;-55
2022/04/25 00:14:42;;;;;;;5.43;3.40;;;;;;;;;;5017441;28;20115;-55
2022/04/25 00:17:08;;;;;;;3.67;3.10;;;;;;;;;;5020520;28;20080;-57
2022/04/25 00:19:39;;;;;;;4.53;3.00;;;;;;;;;;5019651;28;20049;-55
2022/04/25 00:22:05;;;;;;;6.18;3.53;;;;;;;;;;5015820;28;20145;-57
2022/04/25 00:24:32;;;;;;;4.97;3.35;;;;;;;;;;5020109;28;20077;-57
2022/04/25 00:26:59;;;;;;;13.40;4.63;;;;;;;;;;5015302;28;20061;-57
2022/04/25 00:29:25;;;;;;;3.63;2.90;;;;;;;;;;5007197;28;20136;-56
2022/04/25 00:31:52;;;;;;;6.55;3.78;;;;;;;;;;5020854;28;20469;-55
2022/04/25 00:34:19;;;;;;;4.90;3.70;;;;;;;;;;5022794;28;20107;-56
2022/04/25 00:36:46;;;;;;;4.72;3.70;;;;;;;;;;5023589;28;20077;-54
2022/04/25 00:39:12;;;;;;;5.85;3.83;;;;;;;;;;5019313;28;20128;-56
2022/04/25 00:41:46;;;;;;;6.55;3.60;;;;;;;;;;5022491;28;20054;-56
2022/04/25 00:44:15;;;;;;;5.88;3.70;;;;;;;;;;5017695;28;20073;-55
2022/04/25 00:46:41;;;;;;;4.67;3.07;;;;;;;;;;5017906;28;20137;-53
2022/04/25 00:49:15;;;;;;;5.00;3.55;;;;;;;;;;5018069;28;20328;-55
2022/04/25 00:51:42;;;;;;;5.22;3.70;;;;;;;;;;5018449;28;20144;-56
2022/04/25 00:54:09;;;;;;;4.65;3.63;;;;;;;;;;5019655;28;20080;-57
2022/04/25 00:56:36;;;;;;;3.95;3.22;;;;;;;;;;5019344;28;20140;-56
2022/04/25 00:59:03;;;;;;;3.37;2.63;;;;;;;;;;5020922;28;20115;-56
2022/04/25 01:01:31;;;;;;;5.97;4.28;;;;;;;;;;5017797;28;20308;-55
2022/04/25 01:03:59;;;;;;;6.70;4.35;;;;;;;;;;5020276;28;20578;-55
2022/04/25 01:06:25;;;;;;;6.63;3.90;;;;;;;;;;5018640;28;20080;-54
2022/04/25 01:08:52;;;;;;;7.10;4.00;;;;;;;;;;5021413;28;20133;-56
2022/04/25 01:11:25;;;;;;;6.28;4.40;;;;;;;;;;5021696;28;20411;-56
2022/04/25 01:13:51;;;;;;;6.07;4.43;;;;;;;;;;5000437;28;20054;-57
2022/04/25 01:16:17;;;;;;;6.65;4.70;;;;;;;;;;5016224;28;20103;-55
2022/04/25 01:18:44;;;;;;;7.57;4.30;;;;;;;;;;5019106;28;20107;-59
2022/04/25 01:21:13;;;;;;;6.28;4.57;;;;;;;;;;5022997;28;20496;-55
2022/04/25 01:29:16;;;;;;;6.80;4.38;;;;;;;;;;5020735;28;20124;-58
2022/04/25 01:31:45;;;;;;;6.95;4.25;;;;;;;;;;5018834;28;20458;-57
2022/04/25 01:34:12;;;;;;;7.38;4.25;;;;;;;;;;5017429;28;20050;-56
2022/04/25 01:36:38;;;;;;;5.93;4.53;;;;;;;;;;5021557;28;20129;-56
2022/04/25 01:39:07;;;;;;;6.38;3.40;;;;;;;;;;5017964;28;20500;-57
2022/04/25 01:41:33;;;;;;;6.80;4.30;;;;;;;;;;5021525;28;20169;-58
2022/04/25 01:43:59;;;;;;;6.15;4.53;;;;;;;;;;5018422;28;20056;-58
2022/04/25 01:46:33;;;;;;;7.10;4.30;;;;;;;;;;5017593;28;20395;-55
2022/04/25 01:48:59;;;;;;;6.20;4.80;;;;;;;;;;5018937;28;20074;-57
2022/04/25 01:51:25;;;;;;;6.57;4.53;;;;;;;;;;5015096;28;20470;-59
2022/04/25 01:53:54;;;;;;;6.32;4.55;;;;;;;;;;5017100;28;20125;-60
2022/04/25 01:56:20;;;;;;;8.25;5.13;;;;;;;;;;5015227;28;20093;-56
2022/04/25 01:58:47;;;;;;;9.00;5.03;;;;;;;;;;5019615;28;20080;-58
2022/04/25 02:01:20;;;;;;;9.05;5.10;;;;;;;;;;5015693;28;20134;-58
2022/04/25 02:03:47;;;;;;;9.85;5.63;;;;;;;;;;5022130;28;20053;-57
2022/04/25 02:06:13;;;;;;;6.60;4.10;;;;;;;;;;5020329;28;20077;-59
2022/04/25 02:08:40;;;;;;;7.82;5.28;;;;;;;;;;5018916;28;20136;-57
2022/04/25 02:14:06;;;;;;;8.25;5.10;;;;;;;;;;5001603;28;20092;-56
2022/04/25 02:16:32;;;;;;;8.98;5.75;;;;;;;;;;5020139;28;20528;-59
2022/04/25 02:18:59;;;;;;;6.70;4.50;;;;;;;;;;5018912;28;20490;-59
2022/04/25 02:21:32;;;;;;;9.93;5.43;;;;;;;;;;5020707;28;20403;-58
2022/04/25 02:23:59;;;;;;;7.30;5.30;;;;;;;;;;5020804;28;20093;-58
2022/04/25 02:26:25;;;;;;;6.38;4.75;;;;;;;;;;5019630;28;20480;-58
2022/04/25 02:28:54;;;;;;;6.57;5.03;;;;;;;;;;5016350;28;20132;-58
2022/04/25 02:31:21;;;;;;;8.27;5.25;;;;;;;;;;5018358;28;20049;-60
2022/04/25 02:33:48;;;;;;;6.90;4.05;;;;;;;;;;5019084;28;20057;-54
2022/04/25 02:36:15;;;;;;;7.53;5.15;;;;;;;;;;5016502;28;20128;-57
2022/04/25 02:38:41;;;;;;;9.80;5.72;;;;;;;;;;5019348;28;20580;-58
2022/04/25 02:41:10;;;;;;;8.27;5.28;;;;;;;;;;5017637;28;20049;-58
2022/04/25 02:43:44;;;;;;;8.10;5.70;;;;;;;;;;5021492;28;20054;-56
2022/04/25 02:46:11;;;;;;;9.15;5.22;;;;;;;;;;5020933;28;20076;-57
2022/04/25 02:48:39;;;;;;;10.25;6.32;;;;;;;;;;5023804;28;20061;-58
2022/04/25 02:51:13;;;;;;;11.60;5.88;;;;;;;;;;5018374;28;20128;-58
2022/04/25 02:53:40;;;;;;;9.32;5.85;;;;;;;;;;5018046;28;20081;-58
2022/04/25 02:56:07;;;;;;;8.68;5.50;;;;;;;;;;5017389;28;20085;-59
2022/04/25 02:58:41;;;;;;;7.20;5.32;;;;;;;;;;5015551;28;20137;-56
2022/04/25 03:01:13;;;;;;;8.55;5.82;;;;;;;;;;5017505;28;20084;-57
2022/04/25 03:03:40;;;;;;;11.45;6.40;;;;;;;;;;5018370;28;20053;-57
2022/04/25 03:06:09;;;;;;;6.72;4.15;;;;;;;;;;5017915;28;20095;-57
2022/04/25 03:08:36;;;;;;;8.60;5.85;;;;;;;;;;5015395;28;20046;-56
2022/04/25 03:11:04;;;;;;;16.63;6.30;;;;;;;;;;5020482;28;20143;-58
2022/04/25 03:13:41;;;;;;;10.02;5.78;;;;;;;;;;5014617;28;20133;-57
2022/04/25 03:16:07;;;;;;;8.90;5.50;;;;;;;;;;5018402;28;20081;-58
2022/04/25 03:18:34;;;;;;;6.68;3.92;;;;;;;;;;5018243;28;20417;-59
2022/04/25 03:21:08;;;;;;;7.50;4.78;;;;;;;;;;5017483;28;20136;-58
2022/04/25 03:23:36;;;;;;;9.60;5.35;;;;;;;;;;5018731;28;20093;-58
2022/04/25 03:26:03;;;;;;;7.43;4.97;;;;;;;;;;5018463;28;20431;-57
2022/04/25 03:28:30;;;;;;;13.07;6.70;;;;;;;;;;5018883;28;20541;-59
2022/04/25 03:30:56;;;;;;;12.10;6.07;;;;;;;;;;5020280;28;20164;-59
2022/04/25 03:33:22;;;;;;;9.57;5.35;;;;;;;;;;5017062;28;20045;-58
2022/04/25 03:35:49;;;;;;;7.30;4.97;;;;;;;;;;5019546;28;20157;-56
2022/04/25 03:38:17;;;;;;;6.40;3.85;;;;;;;;;;5018127;28;20091;-59
2022/04/25 03:40:44;;;;;;;8.75;5.90;;;;;;;;;;5017188;28;20060;-58
2022/04/25 03:43:18;;;;;;;8.40;5.70;;;;;;;;;;5017822;28;20088;-57
2022/04/25 03:45:44;;;;;;;12.57;5.47;;;;;;;;;;5021043;28;20563;-59
2022/04/25 03:48:11;;;;;;;7.80;5.55;;;;;;;;;;5018529;28;20050;-59
2022/04/25 03:50:38;;;;;;;6.07;4.32;;;;;;;;;;5015534;28;20049;-59
2022/04/25 03:53:08;;;;;;;11.35;7.22;;;;;;;;;;5014174;28;20187;-59
2022/04/25 03:58:25;;;;;;;14.18;6.20;;;;;;;;;;5021027;28;20056;-58
2022/04/25 04:00:51;;;;;;;9.23;5.83;;;;;;;;;;5017678;28;20084;-57
2022/04/25 04:03:19;;;;;;;9.73;5.97;;;;;;;;;;5023787;28;21107;-57
2022/04/25 04:05:46;;;;;;;9.60;6.22;;;;;;;;;;5024598;28;20038;-59
2022/04/25 04:08:13;;;;;;;11.63;6.20;;;;;;;;;;5019316;28;20117;-55
2022/04/25 04:10:40;;;;;;;6.53;4.40;;;;;;;;;;5020874;28;20132;-58
2022/04/25 04:13:07;;;;;;;;;;;;;;;;;;5022458;28;20414;-55
2022/04/25 04:15:34;;;;;;;9.23;6.00;;;;;;;;;;5021802;28;19961;-57
2022/04/25 04:18:00;;;;;;;8.35;5.40;;;;;;;;;;5022817;28;20057;-55
2022/04/25 04:20:34;;;;;;;7.38;5.30;;;;;;;;;;5022393;28;20810;-55
2022/04/25 04:23:00;;;;;;;8.35;4.97;;;;;;;;;;5026210;28;20704;-55
2022/04/25 04:25:27;;;;;;;5.00;3.30;;;;;;;;;;5022846;28;20081;-59
2022/04/25 04:27:55;;;;;;;7.10;4.47;;;;;;;;;;5022919;28;20083;-59
2022/04/25 04:30:21;;;;;;;7.20;4.18;;;;;;;;;;5022861;28;20141;-59
2022/04/25 04:32:47;;;;;;;5.55;4.07;;;;;;;;;;5019971;28;20132;-59
2022/04/25 04:36:17;;;;;;;7.50;4.15;;;;;;;;;;5021314;28;20412;-59
2022/04/25 04:38:03;;;;;;;7.80;4.13;;;;;;;;;;5020304;28;20049;-59
2022/04/25 04:40:36;;;;;;;4.32;3.58;;;;;;;;;;5022476;28;20085;-58
2022/04/25 04:43:03;;;;;;;6.57;3.85;;;;;;;;;;5017757;28;20089;-58
2022/04/25 04:45:30;;;;;;;8.10;4.27;;;;;;;;;;5018225;28;20081;-59
2022/04/25 04:47:56;;;;;;;7.18;3.90;;;;;;;;;;5018812;28;20060;-58
2022/04/25 04:50:23;;;;;;;4.70;3.80;;;;;;;;;;5023340;28;20847;-59
2022/04/25 04:52:57;;;;;;;5.03;3.77;;;;;;;;;;5020764;28;20548;-60
2022/04/25 04:55:24;;;;;;;4.43;3.53;;;;;;;;;;5018431;28;20128;-58
2022/04/25 04:57:51;;;;;;;3.80;3.20;;;;;;;;;;5024893;28;20136;-60
2022/04/25 05:00:17;;;;;;;5.10;2.63;;;;;;;;;;5019383;28;20136;-60
2022/04/25 05:02:45;;;;;;;5.47;3.47;;;;;;;;;;5019360;28;20093;-59
2022/04/25 05:05:12;;;;;;;6.22;3.88;;;;;;;;;;5022940;28;20081;-60
2022/04/25 05:07:39;;;;;;;11.45;3.15;;;;;;;;;;5018464;28;20046;-59
2022/04/25 05:10:09;;;;;;;5.82;3.67;;;;;;;;;;5017392;28;20555;-59
2022/04/25 05:12:42;;;;;;;4.50;3.45;;;;;;;;;;5019922;28;20140;-60
2022/04/25 05:15:09;;;;;;;5.15;3.72;;;;;;;;;;5021023;28;20136;-59
2022/04/25 05:17:35;;;;;;;4.22;3.67;;;;;;;;;;5016611;28;20140;-59
2022/04/25 05:20:02;;;;;;;4.03;3.42;;;;;;;;;;5019301;28;20088;-59
2022/04/25 05:22:37;;;;;;;5.68;4.28;;;;;;;;;;5022302;28;20468;-59
2022/04/25 05:25:04;;;;;;;4.93;3.97;;;;;;;;;;5019390;28;20085;-60
2022/04/25 05:27:32;;;;;;;5.57;3.58;;;;;;;;;;5021405;28;20077;-61
2022/04/25 05:30:02;;;;;;;5.82;3.85;;;;;;;;;;5019941;28;20142;-59
2022/04/25 05:32:39;;;;;;;5.80;4.20;;;;;;;;;;5019286;28;20331;-58
2022/04/25 05:35:07;;;;;;;4.85;3.75;;;;;;;;;;5019614;28;20120;-60
2022/04/25 05:37:34;;;;;;;5.80;4.45;;;;;;;;;;5022580;28;20095;-59
2022/04/25 05:40:00;;;;;;;7.70;4.53;;;;;;;;;;5018434;28;20164;-58
2022/04/25 05:42:33;;;;;;;5.75;4.32;;;;;;;;;;5023089;28;20152;-59
2022/04/25 05:45:00;;;;;;;5.03;3.95;;;;;;;;;;5019045;28;20157;-60
2022/04/25 05:47:27;;;;;;;5.57;3.40;;;;;;;;;;5018897;28;20108;-61
2022/04/25 05:52:39;;;;;;;4.60;3.88;;;;;;;;;;5019575;28;20081;-61
2022/04/25 05:55:10;;;;;;;5.15;3.30;;;;;;;;;;5020361;28;20586;-59
2022/04/25 05:57:36;;;;;;;5.15;3.50;;;;;;;;;;5019240;28;20517;-61
2022/04/25 06:00:04;;;;;;;6.20;3.80;;;;;;;;;;5020248;28;20129;-61
2022/04/25 06:02:32;;;;;;;5.95;3.70;;;;;;;;;;5018824;28;20137;-61
2022/04/25 06:04:58;;;;;;;4.18;2.83;;;;;;;;;;5020156;28;20092;-61
2022/04/25 06:07:24;;;;;;;3.80;3.42;;;;;;;;;;5023868;28;20057;-61
2022/04/25 06:09:52;;;;;;;4.95;3.60;;;;;;;;;;5020167;28;20088;-61
2022/04/25 06:12:19;;;;;;;4.18;3.45;;;;;;;;;;5019126;28;20100;-61
2022/04/25 06:14:48;;;;;;;3.47;3.10;;;;;;;;;;5022037;28;20053;-59
2022/04/25 06:17:21;;;;;;;3.45;3.05;;;;;;;;;;5017641;28;20077;-61
2022/04/25 06:19:47;;;;;;;4.93;3.70;;;;;;;;;;5019209;28;20137;-61
2022/04/25 06:22:14;;;;;;;3.53;3.00;;;;;;;;;;5018566;28;20526;-61
2022/04/25 06:24:48;;;;;;;4.60;3.50;;;;;;;;;;5015098;28;20133;-61
2022/04/25 06:27:14;;;;;;;3.53;3.05;;;;;;;;;;5019537;28;20124;-61
2022/04/25 06:29:44;;;;;;;3.75;2.90;;;;;;;;;;5019229;28;20049;-61
2022/04/25 06:32:11;;;;;;;2.83;2.60;;;;;;;;;;5016363;28;20140;-61
2022/04/25 06:34:37;;;;;;;3.05;2.75;;;;;;;;;;5019334;28;20083;-61
2022/04/25 06:37:04;;;;;;;3.70;2.10;;;;;;;;;;5018356;28;20465;-61
2022/04/25 06:39:32;;;;;;;3.05;2.70;;;;;;;;;;5017306;28;20136;-62
2022/04/25 06:42:00;;;;;;;2.65;2.45;;;;;;;;;;5010054;28;20054;-62
2022/04/25 06:44:27;;;;;;;4.17;2.93;;;;;;;;;;5018808;28;20081;-61
2022/04/25 06:46:56;;;;;;;2.97;2.50;;;;;;;;;;5017085;28;20482;-62
2022/04/25 06:49:25;;;;;;;3.40;2.63;;;;;;;;;;5021236;28;20140;-62
2022/04/25 06:51:56;;;;;;;4.72;2.60;;;;;;;;;;5019703;28;20091;-62
2022/04/25 06:54:29;;;;;;;2.88;2.45;;;;;;;;;;5018984;28;20905;-62
2022/04/25 06:56:57;;;;;;;3.67;2.40;;;;;;;;;;5022991;28;20107;-62
2022/04/25 06:59:23;;;;;;;4.65;2.47;;;;;;;;;;5020925;28;20081;-62
2022/04/25 07:01:51;;;;;;;4.38;2.40;;;;;;;;;;5023218;28;20053;-62
2022/04/25 07:04:18;;;;;;;5.65;2.78;;;;;;;;;;5017380;28;20547;-62
2022/04/25 07:06:47;;;;;;;2.83;2.30;;;;;;;;;;5019038;28;20108;-63
2022/04/25 07:09:17;;;;;;;2.47;2.20;;;;;;;;;;5018045;28;20053;-62
2022/04/25 07:11:44;;;;;;;3.10;2.30;;;;;;;;;;5019073;28;20072;-63
2022/04/25 07:14:12;;;;;;;4.10;2.13;;;;;;;;;;5018022;28;20128;-60
2022/04/25 07:16:40;;;;;;;3.15;2.47;;;;;;;;;;5019911;28;20157;-60
2022/04/25 07:19:06;;;;;;;2.70;2.22;;;;;;;;;;5019381;28;20053;-62
2022/04/25 07:30:10;;;;;;;4.45;1.98;;;;;;;;;;5020732;28;20128;-61
2022/04/25 07:32:39;;;;;;;2.10;1.70;;;;;;;;;;5017947;28;20077;-61
2022/04/25 07:35:06;;;;;;;1.85;1.67;;;;;;;;;;5013672;28;20049;-61
2022/04/25 07:37:33;;;;;;;1.58;1.40;;;;;;;;;;5022577;28;20169;-61
2022/04/25 07:40:00;;;;;;;4.43;1.77;;;;;;;;;;5022851;28;20057;-61
2022/04/25 07:42:29;;;;;;;2.20;1.90;;;;;;;;;;5025521;28;20046;-61
2022/04/25 07:44:56;;;;;;;1.92;1.70;;;;;;;;;;5020746;28;20067;-61
2022/04/25 07:47:23;;;;;;;2.75;1.70;;;;;;;;;;5020698;28;20690;-62
2022/04/25 07:49:50;;;;;;;1.67;1.45;;;;;;;;;;5024130;28;20176;-62
2022/04/25 07:52:24;;;;;;;1.92;1.60;;;;;;;;;;5024700;28;20124;-62
2022/04/25 07:54:52;;;;;;;2.88;2.10;;;;;;;;;;5021540;28;20049;-62
2022/04/25 07:57:23;;;;;;;3.00;1.50;;;;;;;;;;5019139;28;20478;-62
2022/04/25 07:59:50;;;;;;;8.50;1.50;;;;;;;;;;5024514;28;20088;-62
2022/04/25 08:02:20;;;;;;;1.93;1.63;;;;;;;;;;5021981;28;20153;-62
2022/04/25 08:04:47;;;;;;;2.05;1.33;;;;;;;;;;5022177;28;20067;-62
2022/04/25 08:07:13;;;;;;;2.83;1.73;;;;;;;;;;5023595;28;20120;-62
2022/04/25 08:09:40;;;;;;;2.70;1.40;;;;;;;;;;5022550;28;20093;-63
2022/04/25 08:17:59;;;;;;;1.80;1.60;;;;;;;;;;5019510;28;20085;-63
2022/04/25 08:20:35;;;;;;;4.10;1.42;;;;;;;;;;5025469;28;20057;-63
2022/04/25 08:23:02;;;;;;;2.92;1.50;;;;;;;;;;5020992;28;20208;-63
2022/04/25 08:25:32;;;;;;;5.15;1.55;;;;;;;;;;5020071;28;20168;-63
2022/04/25 08:28:05;;;;;;;2.33;1.40;;;;;;;;;;5022357;28;20141;-63
2022/04/25 08:30:32;;;;;;;2.85;1.40;;;;;;;;;;5020194;28;20049;-63
2022/04/25 08:32:59;;;;;;;1.50;1.27;;;;;;;;;;5019984;28;20924;-64
2022/04/25 08:35:27;;;;;;;2.50;1.45;;;;;;;;;;5024446;28;20474;-64
2022/04/25 08:37:56;;;;;;;3.30;1.50;;;;;;;;;;5020890;28;20132;-64
2022/04/25 08:40:22;;;;;;;4.15;1.40;;;;;;;;;;5020681;28;20080;-64
2022/04/25 08:42:50;;;;;;;1.85;1.30;;;;;;;;;;5020915;28;20046;-64
2022/04/25 08:45:17;;;;;;;1.83;1.40;;;;;;;;;;5019918;28;20457;-63
2022/04/25 08:47:43;;;;;;;4.53;1.25;;;;;;;;;;5024905;28;20071;-64
2022/04/25 08:50:10;;;;;;;2.10;1.33;;;;;;;;;;5020938;28;20085;-64
2022/04/25 08:52:38;;;;;;;4.45;1.60;;;;;;;;;;5020060;28;20049;-64
2022/04/25 08:55:05;;;;;;;3.47;1.50;;;;;;;;;;5021221;28;20062;-64
2022/04/25 08:57:35;;;;;;;1.90;1.67;;;;;;;;;;5019949;28;20469;-65
2022/04/25 09:00:04;;;;;;;3.83;1.08;;;;;;;;;;5017881;28;20100;-65
2022/04/25 09:02:30;;;;;;;2.50;1.40;;;;;;;;;;5025296;28;20568;-65
2022/04/25 09:05:08;;;;;;;3.03;1.38;;;;;;;;;;5018736;28;20149;-65
2022/04/25 09:07:37;;;;;;;2.72;1.58;;;;;;;;;;5018511;28;20133;-65
2022/04/25 09:10:08;;;;;;;6.00;1.60;;;;;;;;;;5019839;28;20081;-65
2022/04/25 09:12:36;;;;;;;5.22;1.50;;;;;;;;;;5023287;28;20081;-65
2022/04/25 09:15:04;;;;;;;5.47;1.60;;;;;;;;;;5022980;28;20085;-65
2022/04/25 09:17:49;;;;;;;6.80;1.58;;;;;;;;;;5020152;28;20292;-65
2022/04/25 09:20:23;;;;;;;3.80;1.48;;;;;;;;;;5018293;28;20099;-65
2022/04/25 09:22:50;;;;;;;2.75;1.35;;;;;;;;;;5020402;28;20115;-65
2022/04/25 09:25:17;;;;;;;1.83;1.45;;;;;;;;;;5019837;28;20072;-65
2022/04/25 09:28:12;;;;;;;3.22;1.67;;;;;;;;;;5017842;28;20048;-65
2022/04/25 09:30:53;;;;;;;2.65;1.77;;;;;;;;;;5010563;28;20050;-67
2022/04/25 09:33:26;;;;;;;2.50;1.58;;;;;;;;;;5019463;28;20049;-66
2022/04/25 09:35:53;;;;;;;2.65;1.77;;;;;;;;;;5021148;28;20560;-66
2022/04/25 09:38:30;;;;;;;2.53;1.73;;;;;;;;;;5016023;28;20482;-66
2022/04/25 09:41:05;;;;;;;2.42;1.90;;;;;;;;;;5020832;28;20076;-66
2022/04/25 09:43:32;;;;;;;4.25;1.80;;;;;;;;;;5019797;28;20054;-66
2022/04/25 09:46:13;;;;;;;2.30;1.63;;;;;;;;;;5018839;28;20052;-66
2022/04/25 09:49:02;;;;;;;4.18;1.60;;;;;;;;;;5019728;28;20057;-66
2022/04/25 09:51:28;;;;;;;3.95;1.92;;;;;;;;;;5018967;28;20169;-66
2022/04/25 09:53:55;;;;;;;4.47;1.63;;;;;;;;;;5020926;28;20083;-66
2022/04/25 09:56:26;;;;;;;1.90;1.43;;;;;;;;;;5022568;28;20418;-66
2022/04/25 09:59:00;;;;;;;3.15;1.63;;;;;;;;;;5018195;28;20858;-66
2022/04/25 10:01:35;;;;;;;3.25;1.95;;;;;;;;;;5017223;28;20758;-66
2022/04/25 10:04:04;;;;;;;2.10;1.65;;;;;;;;;;5019187;28;20053;-67
2022/04/25 10:06:32;;;;;;;1.95;1.52;;;;;;;;;;5019130;28;20049;-66
2022/04/25 10:09:00;;;;;;;2.90;1.48;;;;;;;;;;5016971;28;20464;-66
2022/04/25 10:11:30;;;;;;;3.78;1.95;;;;;;;;;;5021527;28;20070;-67
2022/04/25 10:13:57;;;;;;;2.45;1.80;;;;;;;;;;5016381;28;20084;-66
2022/04/25 10:16:24;;;;;;;2.88;1.70;;;;;;;;;;5019285;28;20136;-66
2022/04/25 10:18:51;;;;;;;2.72;1.58;;;;;;;;;;5018098;28;20090;-66
2022/04/25 10:21:25;;;;;;;2.60;1.70;;;;;;;;;;5021290;28;20088;-66
2022/04/25 10:23:51;;;;;;;4.35;1.60;;;;;;;;;;5018907;28;20092;-66
2022/04/25 10:26:18;;;;;;;1.70;1.52;;;;;;;;;;5019188;28;20469;-66
2022/04/25 10:28:50;;;;;;;11.63;1.90;;;;;;;;;;5018890;28;20132;-66
2022/04/25 10:31:21;;;;;;;3.10;2.05;;;;;;;;;;5016555;28;20136;-66
2022/04/25 10:33:49;;;;;;;4.35;1.83;;;;;;;;;;5021776;28;20046;-66
2022/04/25 10:36:34;;;;;;;3.08;1.75;;;;;;;;;;5017082;28;20476;-66
2022/04/25 10:39:19;;;;;;;2.33;1.88;;;;;;;;;;5020166;28;20155;-66
2022/04/25 10:44:47;;;;;;;2.08;1.50;;;;;;;;;;5019456;28;20058;-66
2022/04/25 10:47:14;;;;;;;1.58;1.30;;;;;;;;;;5018329;28;20133;-66
2022/04/25 10:49:41;;;;;;;4.78;1.77;;;;;;;;;;5021735;28;20054;-66
2022/04/25 10:52:26;;;;;;;2.30;1.80;;;;;;;;;;5020164;28;20124;-66
2022/04/25 10:55:10;;;;;;;2.95;1.58;;;;;;;;;;5018110;28;20081;-66
2022/04/25 10:58:07;;;;;;;2.15;1.80;;;;;;;;;;5019002;28;20140;-66
2022/04/25 11:00:36;;;;;;;3.22;1.75;;;;;;;;;;5023548;28;20053;-66
2022/04/25 11:03:13;;;;;;;3.03;1.92;;;;;;;;;;5019172;28;20474;-66
2022/04/25 11:05:44;;;;;;;5.10;1.80;;;;;;;;;;5018612;28;20124;-65
2022/04/25 11:08:19;;;;;;;4.13;1.75;;;;;;;;;;5013031;28;20046;-66
2022/04/25 11:10:47;;;;;;;4.53;1.70;;;;;;;;;;5018299;28;20049;-66
2022/04/25 11:13:22;;;;;;;4.57;1.63;;;;;;;;;;5023408;28;20041;-66
2022/04/25 11:15:50;;;;;;;3.65;1.80;;;;;;;;;;5015354;28;20049;-66
2022/04/25 11:18:36;;;;;;;1.75;1.45;;;;;;;;;;5020602;28;20160;-66
2022/04/25 11:21:07;;;;;;;3.10;1.80;;;;;;;;;;5017143;28;20096;-67
2022/04/25 11:23:44;;;;;;;3.75;1.48;;;;;;;;;;5021614;28;20053;-66
2022/04/25 11:26:11;;;;;;;3.42;1.38;;;;;;;;;;5022393;28;20488;-67
2022/04/25 11:29:03;;;;;;;3.20;1.70;;;;;;;;;;5018668;28;20143;-66
2022/04/25 11:31:37;;;;;;;4.57;1.90;;;;;;;;;;5016675;28;20083;-67
2022/04/25 11:34:04;;;;;;;1.48;1.30;;;;;;;;;;5018200;28;20065;-66
2022/04/25 11:36:31;;;;;;;1.75;1.42;;;;;;;;;;5019373;28;20050;-66
2022/04/25 11:41:50;;;;;;;4.07;1.65;;;;;;;;;;5018042;28;20137;-67
2022/04/25 11:44:23;;;;;;;3.75;1.75;;;;;;;;;;5017784;28;20157;-67
2022/04/25 11:46:50;;;;;;;2.90;1.60;;;;;;;;;;5019282;28;20225;-67
2022/04/25 11:49:27;;;;;;;2.53;1.88;;;;;;;;;;5016643;28;20096;-67
2022/04/25 11:51:55;;;;;;;3.00;1.80;;;;;;;;;;5019891;28;20046;-67
2022/04/25 11:54:22;;;;;;;6.32;1.55;;;;;;;;;;5018198;28;20144;-66
2022/04/25 11:56:48;;;;;;;2.38;1.58;;;;;;;;;;5016181;28;20073;-67
2022/04/25 11:59:23;;;;;;;4.28;1.60;;;;;;;;;;5016290;28;20136;-66
2022/04/25 12:01:49;;;;;;;;;;;;;;;;;;5018386;28;20140;-67
2022/04/25 12:04:18;;;;;;;1.67;1.50;;;;;;;;;;4999454;28;20004;-67
2022/04/25 12:06:57;;;;;;;2.00;1.65;;;;;;;;;;5020214;28;20050;-66
2022/04/25 12:18:14;;;;;;;3.72;1.70;;;;;;;;;;5019321;28;20133;-67
2022/04/25 12:20:44;;;;;;;4.93;1.65;;;;;;;;;;5022256;28;20085;-67
2022/04/25 12:23:18;;;;;;;4.53;1.60;;;;;;;;;;5022807;28;20082;-67
2022/04/25 12:25:47;;;;;;;3.65;1.38;;;;;;;;;;5019746;28;20133;-67
2022/04/25 12:28:13;;;;;;;2.22;1.45;;;;;;;;;;5023782;28;20132;-67
2022/04/25 12:30:46;;;;;;;1.95;1.50;;;;;;;;;;5021630;28;20213;-67
2022/04/25 12:33:20;;;;;;;2.05;1.55;;;;;;;;;;5022511;28;20076;-67
2022/04/25 12:35:47;;;;;;;4.20;1.63;;;;;;;;;;5020886;28;20598;-67
2022/04/25 12:38:33;;;;;;;1.42;1.33;;;;;;;;;;5022301;28;20444;-67
2022/04/25 12:41:08;;;;;;;1.40;1.30;;;;;;;;;;5024018;28;20160;-67
2022/04/25 12:43:39;;;;;;;1.83;1.50;;;;;;;;;;5021771;28;20125;-67
2022/04/25 12:46:07;;;;;;;4.15;1.48;;;;;;;;;;5021491;28;20142;-67
2022/04/25 12:48:56;;;;;;;6.13;1.52;;;;;;;;;;5018753;28;20050;-67
2022/04/25 12:51:33;;;;;;;2.85;1.50;;;;;;;;;;5023799;28;20128;-67
2022/04/25 12:54:26;;;;;;;2.13;1.48;;;;;;;;;;5020137;28;20132;-67
2022/04/25 12:56:55;;;;;;;4.68;1.52;;;;;;;;;;5020734;28;20080;-67
2022/04/25 12:59:29;;;;;;;1.65;1.20;;;;;;;;;;5019913;28;20517;-67
2022/04/25 13:01:55;;;;;;;;;;;;;;;;;;5025070;28;20089;-66
2022/04/25 13:04:22;;;;;;;1.98;1.30;;;;;;;;;;5023550;28;19928;-65
2022/04/25 13:06:48;;;;;;;1.20;1.10;;;;;;;;;;5024995;28;20088;-67
2022/04/25 13:09:15;;;;;;;2.78;1.60;;;;;;;;;;5021026;28;20133;-67
2022/04/25 13:11:51;;;;;;;1.80;1.48;;;;;;;;;;5019112;28;20050;-67
2022/04/25 13:14:28;;;;;;;4.55;1.33;;;;;;;;;;5025484;28;20049;-67
2022/04/25 13:16:55;;;;;;;3.40;1.60;;;;;;;;;;5023848;28;20068;-66
2022/04/25 13:19:21;;;;;;;3.38;1.73;;;;;;;;;;5023389;28;20136;-67
2022/04/25 13:21:49;;;;;;;;;;;;;;;;;;5022985;28;20097;-66
2022/04/25 13:24:16;;;;;;;2.95;1.55;;;;;;;;;;5020210;28;20036;-67
2022/04/25 13:26:42;;;;;;;4.47;1.70;;;;;;;;;;5019923;28;20053;-67
2022/04/25 13:29:15;;;;;;;8.77;1.40;;;;;;;;;;5021659;28;20380;-67
2022/04/25 13:31:41;;;;;;;3.05;1.70;;;;;;;;;;5025808;28;20485;-66
2022/04/25 13:34:08;;;;;;;4.28;1.70;;;;;;;;;;5021693;28;20132;-66
2022/04/25 13:36:41;;;;;;;5.82;1.50;;;;;;;;;;5019393;28;20129;-66
2022/04/25 13:39:08;;;;;;;2.53;1.20;;;;;;;;;;5019534;28;20089;-67
2022/04/25 13:41:34;;;;;;;2.97;1.42;;;;;;;;;;5017821;28;20124;-66
2022/04/25 13:44:07;;;;;;;3.33;1.42;;;;;;;;;;5018842;28;20133;-66
2022/04/25 13:46:34;;;;;;;1.50;1.40;;;;;;;;;;5022748;28;20126;-66
2022/04/25 13:49:07;;;;;;;3.80;1.50;;;;;;;;;;5020221;28;20057;-66
2022/04/25 13:51:34;;;;;;;2.20;1.50;;;;;;;;;;5022435;28;20088;-66
2022/04/25 13:54:01;;;;;;;4.00;1.35;;;;;;;;;;5017495;28;20133;-66
2022/04/25 13:56:27;;;;;;;2.35;1.60;;;;;;;;;;5016615;28;20137;-66
2022/04/25 13:58:54;;;;;;;2.45;1.52;;;;;;;;;;5018302;28;20564;-66
2022/04/25 14:01:21;;;;;;;2.47;1.40;;;;;;;;;;5020879;28;20142;-66
2022/04/25 14:03:49;;;;;;;3.63;1.70;;;;;;;;;;5019677;28;20129;-66
2022/04/25 14:06:16;;;;;;;2.25;1.60;;;;;;;;;;5020989;28;20080;-66
2022/04/25 14:08:43;;;;;;;7.50;1.30;;;;;;;;;;5019020;28;20078;-66
2022/04/25 14:11:10;;;;;;;2.55;1.50;;;;;;;;;;5018547;28;20099;-66
2022/04/25 14:13:45;;;;;;;3.90;1.40;;;;;;;;;;5020783;28;20454;-66
2022/04/25 14:16:12;;;;;;;3.45;1.55;;;;;;;;;;5018247;28;20452;-66
2022/04/25 14:18:39;;;;;;;3.78;1.67;;;;;;;;;;5021730;28;20136;-66
2022/04/25 14:21:09;;;;;;;6.95;1.58;;;;;;;;;;5019611;28;20088;-66
2022/04/25 14:23:36;;;;;;;3.70;1.55;;;;;;;;;;5022027;28;20133;-66
2022/04/25 14:26:03;;;;;;;2.88;1.60;;;;;;;;;;5021641;28;20141;-66
2022/04/25 14:28:30;;;;;;;4.40;1.50;;;;;;;;;;5019936;28;20141;-66
2022/04/25 14:31:18;;;;;;;5.80;1.80;;;;;;;;;;5019170;28;20601;-66
2022/04/25 14:33:45;;;;;;;4.13;1.73;;;;;;;;;;5022382;28;20043;-66
2022/04/25 14:36:11;;;;;;;2.23;1.50;;;;;;;;;;5022653;28;20088;-66
2022/04/25 14:38:37;;;;;;;3.05;1.75;;;;;;;;;;5019764;28;20144;-66
2022/04/25 14:41:11;;;;;;;3.03;1.60;;;;;;;;;;5016663;28;20070;-66
2022/04/25 14:43:38;;;;;;;3.83;1.58;;;;;;;;;;5011796;28;20057;-66
2022/04/25 14:46:04;;;;;;;4.40;1.58;;;;;;;;;;5020150;28;20472;-66
2022/04/25 14:48:33;;;;;;;5.70;1.65;;;;;;;;;;5016980;28;20053;-65
2022/04/25 14:56:37;;;;;;;6.85;1.52;;;;;;;;;;5014200;28;20129;-65
2022/04/25 14:59:07;;;;;;;3.35;1.75;;;;;;;;;;5022352;28;20569;-65
2022/04/25 15:01:34;;;;;;;3.78;1.70;;;;;;;;;;5020394;28;20072;-66
2022/04/25 15:04:00;;;;;;;2.97;1.80;;;;;;;;;;5016579;28;20045;-65
2022/04/25 15:06:28;;;;;;;3.83;1.43;;;;;;;;;;5020502;28;20311;-66
2022/04/25 15:08:54;;;;;;;2.83;1.80;;;;;;;;;;5020931;28;20548;-65
2022/04/25 15:11:20;;;;;;;2.70;1.73;;;;;;;;;;5020402;28;20164;-66
2022/04/25 15:13:49;;;;;;;4.70;1.48;;;;;;;;;;5020451;28;20133;-66
2022/04/25 15:16:16;;;;;;;2.63;1.50;;;;;;;;;;5015740;28;20077;-65
2022/04/25 15:18:42;;;;;;;2.85;1.50;;;;;;;;;;5018378;28;20136;-65
2022/04/25 15:21:15;;;;;;;2.33;1.70;;;;;;;;;;5018893;28;20709;-65
2022/04/25 15:23:46;;;;;;;2.30;1.65;;;;;;;;;;5016838;28;20108;-65
2022/04/25 15:26:13;;;;;;;3.10;1.60;;;;;;;;;;5020763;28;20068;-65
2022/04/25 15:28:46;;;;;;;3.65;1.98;;;;;;;;;;5018902;28;20132;-65
2022/04/25 15:31:12;;;;;;;2.50;1.50;;;;;;;;;;5018145;28;20073;-65
2022/04/25 15:33:39;;;;;;;4.40;1.60;;;;;;;;;;5016929;28;20054;-65
2022/04/25 15:36:08;;;;;;;2.38;1.80;;;;;;;;;;5022200;28;20093;-65
2022/04/25 15:38:34;;;;;;;2.15;1.80;;;;;;;;;;5020708;28;20084;-65
2022/04/25 15:41:01;;;;;;;3.10;1.50;;;;;;;;;;5017198;28;20136;-65
2022/04/25 15:43:34;;;;;;;3.13;1.42;;;;;;;;;;5017415;28;20085;-65